Time;durP1;ratioP1;P1;durP2;ratioP2;P2;SDS_P1;SDS_P2;PMS_P1;PMS_P2;Temp;Humidity;BMP_temperature;BMP_pressure;BME280_temperature;BME280_humidity;BME280_pressure;Samples;Min_cycle;Max_cycle;Signal;HPM_P1;HPM_P2
2021/09/16 00:01:29;;;;;;;1.20;1.10;;;17.60;98.00;;;;;;5011904;28;20455;-74
2021/09/16 00:03:58;;;;;;;1.20;1.07;;;17.60;98.00;;;;;;5011680;28;20491;-74
2021/09/16 00:06:27;;;;;;;1.60;1.20;;;17.70;98.00;;;;;;5011785;28;20729;-75
2021/09/16 00:08:54;;;;;;;1.27;1.10;;;17.90;98.00;;;;;;5011538;28;20502;-74
2021/09/16 00:11:21;;;;;;;1.20;1.00;;;17.90;98.00;;;;;;5011695;28;21040;-75
2021/09/16 00:13:48;;;;;;;1.77;1.40;;;17.90;98.00;;;;;;5011693;28;20530;-74
2021/09/16 00:16:16;;;;;;;1.20;1.13;;;18.00;98.00;;;;;;5011724;28;20523;-74
2021/09/16 00:18:43;;;;;;;3.97;1.47;;;17.90;98.00;;;;;;5011453;28;20455;-75
2021/09/16 00:21:10;;;;;;;1.40;1.20;;;17.90;98.00;;;;;;5010306;28;20494;-75
2021/09/16 00:23:39;;;;;;;1.30;1.17;;;17.90;98.00;;;;;;5011416;28;20459;-75
2021/09/16 00:26:06;;;;;;;1.20;1.17;;;17.90;98.00;;;;;;5010862;28;20502;-75
2021/09/16 00:28:33;;;;;;;1.57;1.30;;;17.90;98.00;;;;;;5011418;28;20513;-74
2021/09/16 00:31:00;;;;;;;1.40;1.30;;;17.90;98.00;;;;;;5011750;28;20887;-75
2021/09/16 00:33:27;;;;;;;1.30;1.10;;;17.90;98.00;;;;;;5011683;28;20456;-74
2021/09/16 00:35:54;;;;;;;1.20;1.03;;;18.00;98.00;;;;;;5011513;28;20517;-75
2021/09/16 00:38:21;;;;;;;1.53;1.20;;;18.10;98.00;;;;;;5011355;28;20463;-74
2021/09/16 00:40:51;;;;;;;1.30;1.27;;;18.20;98.00;;;;;;5011435;28;20487;-75
2021/09/16 00:43:18;;;;;;;1.53;1.27;;;18.30;98.00;;;;;;5012106;28;20903;-74
2021/09/16 00:45:46;;;;;;;1.60;1.10;;;18.30;98.00;;;;;;5012748;28;20537;-74
2021/09/16 00:48:13;;;;;;;1.40;1.20;;;18.20;98.00;;;;;;5011645;28;20511;-74
2021/09/16 00:50:40;;;;;;;1.73;1.50;;;18.20;98.00;;;;;;5012214;28;20519;-74
2021/09/16 00:53:08;;;;;;;1.40;1.27;;;18.10;98.00;;;;;;5010795;28;20475;-74
2021/09/16 00:55:38;;;;;;;1.20;1.10;;;18.00;98.00;;;;;;5011447;28;20494;-74
2021/09/16 00:58:07;;;;;;;1.20;1.10;;;17.90;98.00;;;;;;5011226;28;20483;-75
2021/09/16 01:00:36;;;;;;;1.20;1.00;;;17.90;98.00;;;;;;5011260;28;20491;-75
2021/09/16 01:03:03;;;;;;;1.20;1.20;;;18.00;98.00;;;;;;5011133;28;20548;-75
2021/09/16 01:05:30;;;;;;;1.30;1.20;;;18.00;98.00;;;;;;5011095;28;20494;-74
2021/09/16 01:07:59;;;;;;;1.23;1.07;;;17.90;98.00;;;;;;5011019;28;20547;-75
2021/09/16 01:10:26;;;;;;;1.50;1.20;;;18.00;98.00;;;;;;5010882;28;20461;-74
2021/09/16 01:12:53;;;;;;;3.57;1.10;;;18.00;98.00;;;;;;5010979;28;20468;-74
2021/09/16 01:15:22;;;;;;;1.40;1.30;;;18.00;98.00;;;;;;5011054;28;20452;-75
2021/09/16 01:17:50;;;;;;;1.20;1.10;;;18.00;98.00;;;;;;5010891;28;20538;-74
2021/09/16 01:20:17;;;;;;;1.47;1.30;;;18.20;98.00;;;;;;5009636;28;20544;-74
2021/09/16 01:22:46;;;;;;;1.20;1.10;;;18.10;98.00;;;;;;5013561;28;20459;-74
2021/09/16 01:25:13;;;;;;;1.33;1.23;;;18.10;98.00;;;;;;5014825;28;20546;-74
2021/09/16 01:27:40;;;;;;;2.53;2.00;;;18.10;98.00;;;;;;5014579;28;20460;-75
2021/09/16 01:30:08;;;;;;;1.43;1.33;;;18.10;98.00;;;;;;5014561;28;20863;-74
2021/09/16 01:32:36;;;;;;;1.30;1.30;;;18.10;98.00;;;;;;5014389;28;20877;-74
2021/09/16 01:35:03;;;;;;;1.50;1.40;;;18.20;98.00;;;;;;5014525;28;20466;-75
2021/09/16 01:37:30;;;;;;;2.10;1.40;;;18.10;98.00;;;;;;5014513;28;20569;-75
2021/09/16 01:40:01;;;;;;;1.40;1.20;;;18.00;98.00;;;;;;5014608;28;20946;-74
2021/09/16 01:42:28;;;;;;;1.20;1.03;;;17.90;98.00;;;;;;5014432;28;20495;-74
2021/09/16 01:44:55;;;;;;;1.20;1.20;;;18.00;98.00;;;;;;5014533;28;20499;-75
2021/09/16 01:47:22;;;;;;;1.20;1.03;;;18.00;98.00;;;;;;5014326;28;20452;-74
2021/09/16 01:49:49;;;;;;;1.20;1.20;;;18.00;98.00;;;;;;5014304;28;20455;-75
2021/09/16 01:52:16;;;;;;;1.83;1.40;;;18.00;98.00;;;;;;5014218;28;21112;-75
2021/09/16 01:54:43;;;;;;;1.40;1.10;;;18.00;98.00;;;;;;5014411;28;20479;-74
2021/09/16 01:57:12;;;;;;;2.70;1.37;;;18.00;98.00;;;;;;5013982;28;20549;-74
2021/09/16 01:59:40;;;;;;;1.30;1.20;;;18.00;98.00;;;;;;5014163;28;20513;-74
2021/09/16 02:02:07;;;;;;;1.60;1.50;;;18.20;98.00;;;;;;5014307;28;20491;-74
2021/09/16 02:04:34;;;;;;;1.53;1.20;;;18.20;98.00;;;;;;5014414;28;20498;-74
2021/09/16 02:07:01;;;;;;;1.67;1.40;;;18.20;98.00;;;;;;5013904;28;20484;-74
2021/09/16 02:09:28;;;;;;;1.30;1.23;;;18.30;98.00;;;;;;5014417;28;20456;-74
2021/09/16 02:11:55;;;;;;;1.60;1.30;;;18.30;98.00;;;;;;5014149;28;20463;-73
2021/09/16 02:14:24;;;;;;;1.73;1.40;;;18.20;98.00;;;;;;5013921;28;20503;-73
2021/09/16 02:16:51;;;;;;;1.40;1.23;;;18.10;98.00;;;;;;5013841;28;20515;-73
2021/09/16 02:19:18;;;;;;;1.53;1.30;;;18.10;98.00;;;;;;5013643;28;20452;-73
2021/09/16 02:21:44;;;;;;;1.20;1.10;;;18.10;98.00;;;;;;5013696;28;20938;-73
2021/09/16 02:24:11;;;;;;;2.07;1.93;;;18.10;98.00;;;;;;5013739;28;20478;-73
2021/09/16 02:26:38;;;;;;;1.50;1.30;;;18.10;98.00;;;;;;5012401;28;20452;-73
2021/09/16 02:29:05;;;;;;;1.40;1.30;;;18.10;98.00;;;;;;5013460;28;20978;-74
2021/09/16 02:31:34;;;;;;;1.67;1.20;;;18.10;98.00;;;;;;5013701;28;20495;-73
2021/09/16 02:34:02;;;;;;;1.20;1.20;;;18.20;98.00;;;;;;5013342;28;20517;-74
2021/09/16 02:36:30;;;;;;;1.30;1.20;;;18.20;98.00;;;;;;5013516;28;20463;-73
2021/09/16 02:38:58;;;;;;;1.57;1.30;;;18.10;98.00;;;;;;5013295;28;20537;-73
2021/09/16 02:41:25;;;;;;;2.37;1.27;;;18.00;98.00;;;;;;5011955;28;20452;-73
2021/09/16 02:43:53;;;;;;;1.20;1.10;;;18.00;98.00;;;;;;5013237;28;20458;-73
2021/09/16 02:46:20;;;;;;;1.17;1.07;;;17.90;98.00;;;;;;5013280;28;20459;-73
2021/09/16 02:48:49;;;;;;;1.87;1.10;;;17.90;98.00;;;;;;5013070;28;20451;-73
2021/09/16 02:51:16;;;;;;;1.10;1.00;;;17.90;98.00;;;;;;5013087;28;20861;-73
2021/09/16 02:53:43;;;;;;;1.30;1.30;;;17.90;98.00;;;;;;5012884;28;21000;-73
2021/09/16 02:56:10;;;;;;;1.10;1.00;;;17.90;98.00;;;;;;5013081;28;20487;-73
2021/09/16 02:58:37;;;;;;;1.40;1.20;;;17.80;98.00;;;;;;5012827;28;20511;-73
2021/09/16 03:01:04;;;;;;;1.13;1.07;;;17.80;98.00;;;;;;5012914;28;20518;-72
2021/09/16 03:03:31;;;;;;;1.20;1.20;;;17.80;98.00;;;;;;5012946;28;20459;-74
2021/09/16 03:06:00;;;;;;;1.20;1.10;;;17.90;98.00;;;;;;5012748;28;20460;-73
2021/09/16 03:08:28;;;;;;;1.10;1.00;;;18.10;98.00;;;;;;5012874;28;20491;-73
2021/09/16 03:10:55;;;;;;;1.63;1.37;;;18.00;98.00;;;;;;5012751;28;20467;-73
2021/09/16 03:13:22;;;;;;;1.10;1.00;;;18.00;98.00;;;;;;5012951;28;20467;-73
2021/09/16 03:15:50;;;;;;;1.30;1.20;;;18.00;98.00;;;;;;5012780;28;21012;-74
2021/09/16 03:18:17;;;;;;;1.27;1.13;;;18.00;98.00;;;;;;5012452;28;20566;-74
2021/09/16 03:20:44;;;;;;;1.50;1.30;;;18.20;98.00;;;;;;5011902;28;20495;-73
2021/09/16 03:23:12;;;;;;;1.20;1.10;;;18.10;98.00;;;;;;5012480;28;20492;-74
2021/09/16 03:25:39;;;;;;;1.10;1.00;;;18.00;98.00;;;;;;5012465;28;20514;-73
2021/09/16 03:28:06;;;;;;;1.23;1.13;;;18.10;98.00;;;;;;5012452;28;20451;-73
2021/09/16 03:30:33;;;;;;;1.13;1.10;;;18.10;98.00;;;;;;5012903;28;20459;-72
2021/09/16 03:33:00;;;;;;;1.20;1.20;;;18.00;98.00;;;;;;5012396;28;20518;-72
2021/09/16 03:35:27;;;;;;;1.40;1.20;;;18.00;98.00;;;;;;5012281;28;20491;-72
2021/09/16 03:37:54;;;;;;;1.30;1.30;;;18.00;98.00;;;;;;5012182;28;20558;-72
2021/09/16 03:40:23;;;;;;;1.40;1.20;;;17.90;98.00;;;;;;5012189;28;20518;-72
2021/09/16 03:42:51;;;;;;;1.83;1.50;;;18.10;98.00;;;;;;5012051;28;20482;-72
2021/09/16 03:45:18;;;;;;;1.20;1.20;;;18.00;98.00;;;;;;5011556;28;20538;-72
2021/09/16 03:47:45;;;;;;;1.17;1.10;;;18.00;98.00;;;;;;5012147;28;20487;-72
2021/09/16 03:50:12;;;;;;;1.27;1.23;;;18.10;98.00;;;;;;5012021;28;20460;-72
2021/09/16 03:52:39;;;;;;;1.20;1.10;;;18.10;98.00;;;;;;5011838;28;20514;-72
2021/09/16 03:55:08;;;;;;;1.10;1.10;;;18.10;98.00;;;;;;5011872;28;20499;-72
2021/09/16 03:57:36;;;;;;;1.30;1.23;;;18.00;98.00;;;;;;5011844;28;20483;-71
2021/09/16 04:00:06;;;;;;;1.37;1.10;;;17.90;98.00;;;;;;5011799;28;20460;-72
2021/09/16 04:02:34;;;;;;;1.20;1.13;;;17.90;98.00;;;;;;5011708;28;20467;-71
2021/09/16 04:05:03;;;;;;;2.83;1.23;;;17.90;98.00;;;;;;5011839;28;20493;-72
2021/09/16 04:07:30;;;;;;;1.30;1.20;;;18.00;98.00;;;;;;5011748;28;20455;-72
2021/09/16 04:09:59;;;;;;;2.00;1.37;;;18.10;98.00;;;;;;5011583;28;20695;-72
2021/09/16 04:12:26;;;;;;;1.70;1.40;;;18.10;98.00;;;;;;5011448;28;20455;-72
2021/09/16 04:14:54;;;;;;;1.37;1.03;;;18.10;98.00;;;;;;5011510;28;20521;-71
2021/09/16 04:17:21;;;;;;;1.20;1.13;;;18.20;98.00;;;;;;5011494;28;20577;-72
2021/09/16 04:19:49;;;;;;;1.20;1.10;;;18.10;98.00;;;;;;5011796;28;20530;-72
2021/09/16 04:22:16;;;;;;;1.43;1.10;;;18.20;98.00;;;;;;5011420;28;21216;-71
2021/09/16 04:24:43;;;;;;;1.70;1.50;;;18.30;98.00;;;;;;5010184;28;21004;-71
2021/09/16 04:27:12;;;;;;;2.07;1.40;;;18.30;98.00;;;;;;5011368;28;20458;-71
2021/09/16 04:29:40;;;;;;;1.60;1.20;;;18.20;98.00;;;;;;5011504;28;20463;-71
2021/09/16 04:32:09;;;;;;;1.60;1.30;;;18.00;98.00;;;;;;5011462;28;20487;-71
2021/09/16 04:34:36;;;;;;;1.40;1.20;;;17.90;98.00;;;;;;5011261;28;20467;-71
2021/09/16 04:37:04;;;;;;;1.53;1.23;;;17.90;98.00;;;;;;5011401;28;20513;-71
2021/09/16 04:39:31;;;;;;;1.63;1.57;;;17.90;98.00;;;;;;5011184;28;20868;-71
2021/09/16 04:42:02;;;;;;;1.10;1.10;;;18.00;98.00;;;;;;5011126;28;20463;-71
2021/09/16 04:44:29;;;;;;;1.10;1.00;;;18.00;98.00;;;;;;5011109;28;20459;-71
2021/09/16 04:46:56;;;;;;;1.60;1.30;;;17.90;98.00;;;;;;5011334;28;20467;-72
2021/09/16 04:49:24;;;;;;;1.30;1.23;;;17.80;98.00;;;;;;5011267;28;20529;-71
2021/09/16 04:51:52;;;;;;;1.10;1.10;;;17.70;98.00;;;;;;5011406;28;21056;-71
2021/09/16 04:54:19;;;;;;;2.17;1.60;;;17.80;98.00;;;;;;5011134;28;20459;-71
2021/09/16 04:56:46;;;;;;;1.77;1.47;;;17.90;98.00;;;;;;5012449;28;20487;-71
2021/09/16 04:59:13;;;;;;;1.90;1.83;;;17.90;98.00;;;;;;5015095;28;20574;-71
2021/09/16 05:01:40;;;;;;;1.30;1.20;;;18.00;98.00;;;;;;5013802;28;20538;-71
2021/09/16 05:04:07;;;;;;;1.87;1.40;;;18.10;98.00;;;;;;5015130;28;20483;-71
2021/09/16 05:06:36;;;;;;;1.50;1.43;;;18.00;98.00;;;;;;5015117;28;20491;-71
2021/09/16 05:09:03;;;;;;;1.20;1.20;;;18.00;98.00;;;;;;5015067;28;20483;-71
2021/09/16 05:11:30;;;;;;;1.40;1.20;;;18.20;98.00;;;;;;5014895;28;20451;-71
2021/09/16 05:13:57;;;;;;;1.63;1.30;;;18.20;98.00;;;;;;5014831;28;20491;-72
2021/09/16 05:16:24;;;;;;;1.20;1.10;;;18.20;98.00;;;;;;5014950;28;20460;-71
2021/09/16 05:18:51;;;;;;;1.30;1.23;;;18.40;98.00;;;;;;5014927;28;20562;-71
2021/09/16 05:21:18;;;;;;;1.60;1.20;;;18.40;98.00;;;;;;5014897;28;20505;-71
2021/09/16 05:23:46;;;;;;;1.40;1.30;;;18.40;98.00;;;;;;5014663;28;20486;-72
2021/09/16 05:26:13;;;;;;;2.03;1.70;;;18.40;98.00;;;;;;5014596;28;20467;-72
2021/09/16 05:28:40;;;;;;;2.23;1.50;;;18.30;98.00;;;;;;5014683;28;20529;-72
2021/09/16 05:31:07;;;;;;;1.20;1.10;;;18.20;98.00;;;;;;5014712;28;20629;-71
2021/09/16 05:33:34;;;;;;;1.87;1.20;;;18.10;98.00;;;;;;5014561;28;20470;-71
2021/09/16 05:36:05;;;;;;;1.27;1.20;;;18.00;98.00;;;;;;5014533;28;20882;-72
2021/09/16 05:38:32;;;;;;;1.13;1.10;;;18.10;98.00;;;;;;5014431;28;20518;-71
2021/09/16 05:41:01;;;;;;;1.30;1.20;;;18.00;98.00;;;;;;5014552;28;20539;-72
2021/09/16 05:43:28;;;;;;;1.70;1.57;;;18.00;98.00;;;;;;5014245;28;20459;-71
2021/09/16 05:45:55;;;;;;;1.13;1.10;;;18.00;98.00;;;;;;5014300;28;20455;-71
2021/09/16 05:48:23;;;;;;;2.10;1.60;;;18.10;98.00;;;;;;5014201;28;20467;-72
2021/09/16 05:50:50;;;;;;;1.77;1.57;;;18.10;98.00;;;;;;5013887;28;20455;-71
2021/09/16 05:53:17;;;;;;;1.13;1.10;;;18.10;98.00;;;;;;5013430;28;20475;-71
2021/09/16 05:55:45;;;;;;;1.43;1.40;;;18.20;98.00;;;;;;5014318;28;20874;-71
2021/09/16 05:58:14;;;;;;;1.20;1.20;;;18.20;98.00;;;;;;5014170;28;20945;-71
2021/09/16 06:00:41;;;;;;;1.40;1.30;;;18.20;98.00;;;;;;5014130;28;20545;-71
2021/09/16 06:03:08;;;;;;;1.20;1.10;;;18.40;98.00;;;;;;5014104;28;20486;-71
2021/09/16 06:05:35;;;;;;;1.63;1.57;;;18.40;98.00;;;;;;5012831;28;20512;-71
2021/09/16 06:08:01;;;;;;;1.10;1.10;;;18.30;98.00;;;;;;5013495;28;20500;-73
2021/09/16 06:10:28;;;;;;;1.10;1.03;;;18.20;98.00;;;;;;5013892;28;20451;-73
2021/09/16 06:12:55;;;;;;;1.57;1.40;;;18.30;98.00;;;;;;5014124;28;20502;-72
2021/09/16 06:15:24;;;;;;;1.50;1.30;;;18.40;98.00;;;;;;5014246;28;21046;-72
2021/09/16 06:17:51;;;;;;;1.23;1.23;;;18.50;98.00;;;;;;5013920;28;20573;-71
2021/09/16 06:20:18;;;;;;;1.47;1.40;;;18.60;98.00;;;;;;5013909;28;20459;-72
2021/09/16 06:22:46;;;;;;;1.33;1.30;;;18.60;98.00;;;;;;5013930;28;20459;-72
2021/09/16 06:25:14;;;;;;;1.77;1.40;;;18.60;98.00;;;;;;5013931;28;20538;-71
2021/09/16 06:27:41;;;;;;;1.20;1.10;;;18.60;98.00;;;;;;5013549;28;20494;-72
2021/09/16 06:30:09;;;;;;;1.60;1.30;;;18.50;98.00;;;;;;5013591;28;20499;-72
2021/09/16 06:32:38;;;;;;;1.27;1.20;;;18.40;98.00;;;;;;5013498;28;20905;-72
2021/09/16 06:35:08;;;;;;;1.30;1.30;;;18.30;98.00;;;;;;5013456;28;20459;-72
2021/09/16 06:37:35;;;;;;;1.53;1.20;;;18.30;98.00;;;;;;5012802;28;21013;-70
2021/09/16 06:40:02;;;;;;;1.43;1.33;;;18.30;98.00;;;;;;5013221;28;20487;-71
2021/09/16 06:42:29;;;;;;;1.50;1.40;;;18.40;98.00;;;;;;5013359;28;20978;-72
2021/09/16 06:44:56;;;;;;;1.50;1.30;;;18.40;98.00;;;;;;5013254;28;20996;-72
2021/09/16 06:47:24;;;;;;;1.37;1.27;;;18.40;98.00;;;;;;5013317;28;20829;-72
2021/09/16 06:49:52;;;;;;;1.30;1.30;;;18.50;98.00;;;;;;5011989;28;20700;-72
2021/09/16 06:52:22;;;;;;;1.60;1.20;;;18.40;98.00;;;;;;5012945;28;20455;-71
2021/09/16 06:54:49;;;;;;;1.73;1.63;;;18.30;98.00;;;;;;5012828;28;20558;-72
2021/09/16 06:57:17;;;;;;;1.40;1.20;;;18.30;98.00;;;;;;5013027;28;20459;-71
2021/09/16 06:59:44;;;;;;;1.30;1.20;;;18.30;98.00;;;;;;5012794;28;20523;-72
2021/09/16 07:02:11;;;;;;;1.20;1.10;;;18.40;98.00;;;;;;5013147;28;20553;-72
2021/09/16 07:04:38;;;;;;;1.10;1.10;;;18.50;98.00;;;;;;5012831;28;20518;-72
2021/09/16 07:07:10;;;;;;;1.40;1.20;;;18.60;98.00;;;;;;5012766;28;20463;-71
2021/09/16 07:09:38;;;;;;;1.30;1.17;;;18.60;98.00;;;;;;5012808;28;20869;-72
2021/09/16 07:12:07;;;;;;;1.30;1.20;;;18.60;98.00;;;;;;5012915;28;20455;-72
2021/09/16 07:14:34;;;;;;;1.60;1.30;;;18.70;98.00;;;;;;5012605;28;20483;-71
2021/09/16 07:17:02;;;;;;;1.10;1.00;;;18.90;98.00;;;;;;5011379;28;20455;-72
2021/09/16 07:19:29;;;;;;;1.40;1.20;;;19.10;98.00;;;;;;5011606;28;20484;-72
2021/09/16 07:21:56;;;;;;;1.20;1.10;;;19.20;98.00;;;;;;5012563;28;20463;-73
2021/09/16 07:24:25;;;;;;;1.47;1.30;;;19.30;98.00;;;;;;5012649;28;20468;-72
2021/09/16 07:26:52;;;;;;;1.17;1.10;;;19.30;98.00;;;;;;5012599;28;20460;-73
2021/09/16 07:29:20;;;;;;;1.43;1.23;;;19.30;98.00;;;;;;5012548;28;20961;-73
2021/09/16 07:31:48;;;;;;;1.30;1.17;;;19.30;98.00;;;;;;5012760;28;20455;-72
2021/09/16 07:34:16;;;;;;;1.20;1.10;;;19.30;98.00;;;;;;5012660;28;20498;-72
2021/09/16 07:36:44;;;;;;;3.10;1.33;;;19.40;98.00;;;;;;5012533;28;20494;-72
2021/09/16 07:39:12;;;;;;;1.27;1.20;;;19.40;98.00;;;;;;5012382;28;21012;-73
2021/09/16 07:41:41;;;;;;;1.50;1.30;;;19.60;98.00;;;;;;4995075;28;20832;-74
2021/09/16 07:44:08;;;;;;;1.10;1.00;;;19.50;98.00;;;;;;5012166;28;20534;-74
2021/09/16 07:46:36;;;;;;;1.10;1.10;;;19.60;98.00;;;;;;5011103;28;20917;-73
2021/09/16 07:49:03;;;;;;;1.40;1.40;;;19.60;98.00;;;;;;5012007;28;20535;-74
2021/09/16 07:51:30;;;;;;;1.13;1.10;;;19.60;98.00;;;;;;5012254;28;20824;-74
2021/09/16 07:53:57;;;;;;;1.50;1.30;;;19.50;98.00;;;;;;5012118;28;21005;-73
2021/09/16 07:56:24;;;;;;;1.70;1.20;;;19.50;98.00;;;;;;5012367;28;20461;-73
2021/09/16 07:58:52;;;;;;;1.30;1.30;;;19.60;98.00;;;;;;5011986;28;20535;-75
2021/09/16 08:01:19;;;;;;;1.93;1.43;;;19.70;98.00;;;;;;5011964;28;20491;-74
2021/09/16 08:03:46;;;;;;;1.30;1.30;;;19.70;98.00;;;;;;5012066;28;20506;-73
2021/09/16 08:06:14;;;;;;;1.70;1.30;;;19.70;98.00;;;;;;5008155;28;20591;-75
2021/09/16 08:08:41;;;;;;;1.40;1.30;;;19.80;98.00;;;;;;5012778;28;21009;-76
2021/09/16 08:11:08;;;;;;;2.50;1.23;;;20.00;98.00;;;;;;5010123;28;20518;-75
2021/09/16 08:13:35;;;;;;;1.30;1.20;;;20.10;98.00;;;;;;5010539;28;20725;-72
2021/09/16 08:16:04;;;;;;;1.30;1.20;;;20.00;98.00;;;;;;5009599;28;20464;-75
2021/09/16 08:18:31;;;;;;;1.30;1.20;;;19.80;98.00;;;;;;5009349;28;20565;-72
2021/09/16 08:20:59;;;;;;;2.00;1.67;;;19.70;98.00;;;;;;5009454;28;20447;-72
2021/09/16 08:23:28;;;;;;;1.17;1.13;;;19.80;98.00;;;;;;5007747;28;20997;-75
2021/09/16 08:25:55;;;;;;;1.40;1.30;;;19.80;98.00;;;;;;5009062;28;20469;-75
2021/09/16 08:28:22;;;;;;;1.50;1.23;;;19.90;98.00;;;;;;5007499;28;20460;-75
2021/09/16 08:30:50;;;;;;;1.40;1.30;;;19.90;98.00;;;;;;5008728;28;20518;-75
2021/09/16 08:33:20;;;;;;;1.10;1.10;;;19.80;98.00;;;;;;5008805;28;20456;-76
2021/09/16 08:35:47;;;;;;;2.03;1.40;;;19.70;98.00;;;;;;5008515;28;20530;-76
2021/09/16 08:38:15;;;;;;;1.43;1.30;;;19.50;98.00;;;;;;5007912;28;20455;-76
2021/09/16 08:40:42;;;;;;;1.10;1.00;;;19.40;98.00;;;;;;5008897;28;20547;-76
2021/09/16 08:43:10;;;;;;;1.10;1.00;;;19.20;98.00;;;;;;5008699;28;20515;-75
2021/09/16 08:45:37;;;;;;;1.30;1.30;;;19.00;98.00;;;;;;5008724;28;20467;-77
2021/09/16 08:48:04;;;;;;;1.87;1.17;;;19.00;98.00;;;;;;5008752;28;20950;-75
2021/09/16 08:50:33;;;;;;;1.70;1.60;;;18.80;98.00;;;;;;5006472;28;20491;-76
2021/09/16 08:53:00;;;;;;;1.10;1.00;;;18.80;98.00;;;;;;5011343;28;20483;-76
2021/09/16 08:55:28;;;;;;;1.33;1.20;;;18.70;98.00;;;;;;5026918;28;20459;-75
2021/09/16 08:57:59;;;;;;;1.30;1.20;;;18.80;98.00;;;;;;5023822;28;20554;-75
2021/09/16 09:00:27;;;;;;;1.30;1.20;;;18.90;98.00;;;;;;5019793;28;20491;-75
2021/09/16 09:02:57;;;;;;;1.30;1.10;;;18.80;98.00;;;;;;5021722;28;20466;-75
2021/09/16 09:05:26;;;;;;;1.80;1.30;;;18.80;98.00;;;;;;5014428;28;20462;-75
2021/09/16 09:07:57;;;;;;;1.10;1.00;;;18.80;98.00;;;;;;5010488;28;20451;-75
2021/09/16 09:10:42;;;;;;;1.33;1.23;;;18.60;98.00;;;;;;5015200;28;20517;-74
2021/09/16 09:13:12;;;;;;;3.20;1.63;;;18.60;98.00;;;;;;5019796;28;20857;-75
2021/09/16 09:15:41;;;;;;;1.30;1.20;;;18.70;98.00;;;;;;5019834;28;20969;-75
2021/09/16 09:18:13;;;;;;;1.50;1.20;;;18.70;98.00;;;;;;5017583;28;20517;-75
2021/09/16 09:20:56;;;;;;;1.40;1.30;;;18.90;98.00;;;;;;5019143;28;20548;-76
2021/09/16 09:26:23;;;;;;;1.33;1.27;;;18.60;98.00;;;;;;5000473;28;20469;-78
2021/09/16 09:28:51;;;;;;;1.40;1.30;;;18.70;98.00;;;;;;5023920;28;20782;-75
2021/09/16 09:31:20;;;;;;;1.10;1.00;;;18.60;98.00;;;;;;5013794;28;20459;-76
2021/09/16 09:33:47;;;;;;;1.20;1.20;;;18.60;98.00;;;;;;5028661;28;20945;-75
2021/09/16 09:36:18;;;;;;;1.50;1.40;;;18.50;98.00;;;;;;5018278;28;20512;-81
2021/09/16 09:38:56;;;;;;;1.33;1.30;;;18.60;98.00;;;;;;5020478;28;20447;-81
2021/09/16 09:41:31;;;;;;;1.73;1.50;;;18.70;98.00;;;;;;5015824;28;20455;-78
2021/09/16 09:44:08;;;;;;;1.50;1.30;;;18.80;98.00;;;;;;5019053;28;20454;-74
2021/09/16 09:46:44;;;;;;;1.63;1.30;;;18.90;98.00;;;;;;5014794;28;20455;-75
2021/09/16 09:49:13;;;;;;;1.10;1.10;;;18.90;98.00;;;;;;5012166;28;20545;-75
2021/09/16 09:51:42;;;;;;;1.40;1.30;;;18.70;98.00;;;;;;5014552;28;20459;-74
2021/09/16 09:54:26;;;;;;;1.30;1.20;;;18.60;98.00;;;;;;5012089;28;20941;-74
2021/09/16 09:57:11;;;;;;;1.10;1.00;;;18.40;98.00;;;;;;5029932;28;20545;-74
2021/09/16 09:59:58;;;;;;;1.10;0.93;;;18.40;98.00;;;;;;5014255;28;21034;-75
2021/09/16 10:02:27;;;;;;;1.60;1.37;;;18.40;98.00;;;;;;5022852;28;20525;-77
2021/09/16 10:04:55;;;;;;;1.10;1.10;;;18.30;98.00;;;;;;5017535;28;20494;-72
2021/09/16 10:07:40;;;;;;;1.10;1.00;;;18.40;98.00;;;;;;5021872;28;20463;-75
2021/09/16 10:10:21;;;;;;;1.10;1.10;;;18.30;98.00;;;;;;5029879;28;20447;-73
2021/09/16 10:12:51;;;;;;;1.13;1.03;;;18.10;98.00;;;;;;5022904;28;20843;-74
2021/09/16 10:15:21;;;;;;;1.40;1.40;;;18.10;98.00;;;;;;5022473;28;20550;-74
2021/09/16 10:17:51;;;;;;;1.17;1.13;;;18.00;98.00;;;;;;5022592;28;20945;-75
2021/09/16 10:20:20;;;;;;;1.57;1.20;;;18.20;98.00;;;;;;5013849;28;20556;-75
2021/09/16 10:22:48;;;;;;;1.20;1.13;;;18.30;98.00;;;;;;5020732;28;20526;-75
2021/09/16 10:25:19;;;;;;;1.20;1.20;;;18.40;98.00;;;;;;5022270;28;20454;-75
2021/09/16 10:27:48;;;;;;;1.30;1.07;;;18.50;98.00;;;;;;5021226;28;20487;-74
2021/09/16 10:30:33;;;;;;;1.20;1.13;;;18.50;98.00;;;;;;5029410;28;20470;-74
2021/09/16 10:33:03;;;;;;;1.30;1.27;;;18.40;98.00;;;;;;5029500;28;20458;-74
2021/09/16 10:35:32;;;;;;;1.60;1.43;;;18.40;98.00;;;;;;5027143;28;20548;-75
2021/09/16 10:38:27;;;;;;;1.53;1.10;;;18.40;98.00;;;;;;5024261;28;20458;-74
2021/09/16 10:41:19;;;;;;;1.40;1.20;;;18.40;98.00;;;;;;5020407;28;20522;-75
2021/09/16 10:43:47;;;;;;;1.80;1.70;;;18.10;98.00;;;;;;5013987;28;20455;-77
2021/09/16 10:46:36;;;;;;;1.50;1.40;;;17.90;98.00;;;;;;5029754;28;20463;-74
2021/09/16 10:49:29;;;;;;;1.77;1.30;;;17.80;98.00;;;;;;5013042;28;20531;-74
2021/09/16 10:51:58;;;;;;;1.80;1.20;;;17.70;98.00;;;;;;5004258;28;20459;-74
2021/09/16 10:54:36;;;;;;;1.10;1.10;;;17.70;98.00;;;;;;5010705;28;20535;-74
2021/09/16 10:57:08;;;;;;;1.10;1.10;;;17.60;98.00;;;;;;5011258;28;20464;-75
2021/09/16 11:00:10;;;;;;;1.43;1.40;;;17.80;98.00;;;;;;5011195;28;20570;-75
2021/09/16 11:03:14;;;;;;;1.20;1.20;;;17.80;98.00;;;;;;5011258;28;20467;-75
2021/09/16 11:05:51;;;;;;;1.50;1.43;;;17.80;98.00;;;;;;5010253;28;20487;-75
2021/09/16 11:08:20;;;;;;;1.87;1.40;;;17.80;98.00;;;;;;5010433;28;20469;-76
2021/09/16 11:10:57;;;;;;;1.20;1.20;;;18.00;98.00;;;;;;5010989;28;20456;-71
2021/09/16 11:13:50;;;;;;;1.20;1.20;;;18.40;98.00;;;;;;5010587;28;20471;-71
2021/09/16 11:16:25;;;;;;;1.40;1.30;;;18.70;98.00;;;;;;5010350;28;20479;-71
2021/09/16 11:19:00;;;;;;;1.40;1.40;;;18.80;98.00;;;;;;5010584;28;20491;-70
2021/09/16 11:21:28;;;;;;;1.60;1.43;;;18.90;98.00;;;;;;5010496;28;20498;-71
2021/09/16 11:23:55;;;;;;;1.40;1.30;;;18.90;98.00;;;;;;5009304;28;20466;-70
2021/09/16 11:26:26;;;;;;;1.47;1.20;;;18.80;98.00;;;;;;5010395;28;20459;-70
2021/09/16 11:29:09;;;;;;;2.03;1.70;;;18.70;98.00;;;;;;5010471;28;20487;-71
2021/09/16 11:31:37;;;;;;;1.73;1.50;;;18.70;98.00;;;;;;5010527;28;20463;-70
2021/09/16 11:34:22;;;;;;;2.00;1.50;;;18.60;98.00;;;;;;4993070;28;20471;-70
2021/09/16 11:37:18;;;;;;;2.77;1.70;;;18.60;98.00;;;;;;5002073;28;20510;-71
2021/09/16 11:40:03;;;;;;;1.73;1.53;;;18.60;98.00;;;;;;5005688;28;20495;-70
2021/09/16 11:42:31;;;;;;;1.30;1.30;;;18.50;98.00;;;;;;5009299;28;20458;-70
2021/09/16 11:45:07;;;;;;;1.53;1.50;;;18.50;98.00;;;;;;5009967;28;20487;-70
2021/09/16 11:47:43;;;;;;;1.87;1.53;;;18.50;98.00;;;;;;5010048;28;20509;-71
2021/09/16 11:50:27;;;;;;;1.70;1.40;;;18.50;98.00;;;;;;5007911;28;20553;-70
2021/09/16 11:52:56;;;;;;;1.70;1.40;;;18.50;98.00;;;;;;5001914;28;20514;-71
2021/09/16 11:55:23;;;;;;;2.37;2.13;;;18.50;98.00;;;;;;5009814;28;20486;-71
2021/09/16 11:58:10;;;;;;;2.23;1.63;;;18.50;98.00;;;;;;5009978;28;20455;-71
2021/09/16 12:00:41;;;;;;;2.00;1.70;;;18.40;98.00;;;;;;5003809;28;20508;-71
2021/09/16 12:03:10;;;;;;;2.90;1.70;;;18.40;98.00;;;;;;5009969;28;20502;-71
2021/09/16 12:05:40;;;;;;;1.77;1.63;;;18.30;98.00;;;;;;5008086;28;20526;-71
2021/09/16 12:08:09;;;;;;;2.60;1.80;;;18.30;98.00;;;;;;5009747;28;20553;-74
2021/09/16 12:10:41;;;;;;;2.90;2.10;;;18.20;98.00;;;;;;5010107;28;20529;-71
2021/09/16 12:13:09;;;;;;;2.83;2.20;;;18.20;98.00;;;;;;5009990;28;20495;-72
2021/09/16 12:15:36;;;;;;;3.57;2.60;;;18.00;98.00;;;;;;5009953;28;20549;-72
2021/09/16 12:18:07;;;;;;;1.83;1.83;;;18.10;98.00;;;;;;5009270;28;20456;-70
2021/09/16 12:20:35;;;;;;;2.07;1.80;;;18.10;98.00;;;;;;5010002;28;20487;-72
2021/09/16 12:23:05;;;;;;;1.73;1.57;;;18.20;98.00;;;;;;5009754;28;20452;-69
2021/09/16 12:25:49;;;;;;;1.73;1.63;;;18.10;98.00;;;;;;5009751;28;20464;-74
2021/09/16 12:28:17;;;;;;;2.70;2.00;;;18.00;98.00;;;;;;5008139;28;20486;-73
2021/09/16 12:30:44;;;;;;;2.53;1.93;;;17.80;98.00;;;;;;5009395;28;20464;-74
2021/09/16 12:33:32;;;;;;;1.83;1.47;;;17.80;98.00;;;;;;5009342;28;20451;-72
2021/09/16 12:36:15;;;;;;;3.20;1.83;;;17.80;98.00;;;;;;5009513;28;20510;-72
2021/09/16 12:38:44;;;;;;;2.47;1.63;;;17.70;98.00;;;;;;5000822;28;20781;-72
2021/09/16 12:41:38;;;;;;;2.30;1.90;;;17.70;98.00;;;;;;5011927;28;20939;-73
2021/09/16 12:44:09;;;;;;;1.57;1.30;;;17.90;98.00;;;;;;5011948;28;20462;-73
2021/09/16 12:46:42;;;;;;;3.03;2.47;;;18.00;98.00;;;;;;5012321;28;20930;-71
2021/09/16 12:49:32;;;;;;;2.37;1.90;;;18.10;98.00;;;;;;5011959;28;20456;-71
2021/09/16 12:52:02;;;;;;;2.37;2.17;;;18.10;98.00;;;;;;5011063;28;21104;-72
2021/09/16 12:54:30;;;;;;;1.70;1.43;;;18.20;98.00;;;;;;5026509;28;20504;-73
2021/09/16 12:56:57;;;;;;;2.23;1.73;;;18.10;98.00;;;;;;5031745;28;20528;-73
2021/09/16 12:59:26;;;;;;;2.20;1.73;;;17.90;98.00;;;;;;5031551;28;20540;-72
2021/09/16 13:02:10;;;;;;;1.53;1.47;;;18.00;98.00;;;;;;5031501;28;20853;-72
2021/09/16 13:05:01;;;;;;;3.20;1.90;;;18.00;98.00;;;;;;5031682;28;20999;-71